createdAt,value
2023-03-23T16:00:21.765Z,20.30
2023-03-23T16:02:51.308Z,20.30
2023-03-23T16:05:19.443Z,20.20
2023-03-23T16:07:46.249Z,20.10
2023-03-23T16:10:18.389Z,20.10
2023-03-23T16:12:47.238Z,20.00
2023-03-23T16:15:14.864Z,20.00
2023-03-23T16:17:42.150Z,19.90
2023-03-23T16:20:16.716Z,19.80
2023-03-23T16:22:45.879Z,19.70
2023-03-23T16:25:16.766Z,19.70
2023-03-23T16:27:45.938Z,19.60
2023-03-23T16:30:16.251Z,19.50
2023-03-23T16:32:44.468Z,19.50
2023-03-23T16:35:14.520Z,19.40
2023-03-23T16:38:08.358Z,19.40
2023-03-23T16:40:42.258Z,19.30
2023-03-23T16:43:09.795Z,19.20
2023-03-23T16:45:38.332Z,19.20
2023-03-23T16:48:06.509Z,19.10
2023-03-23T16:50:34.354Z,19.00
2023-03-23T16:53:03.107Z,19.00
2023-03-23T16:55:33.073Z,18.90
2023-03-23T17:00:43.530Z,18.80
2023-03-23T17:03:11.644Z,18.70
2023-03-23T17:08:26.900Z,18.60
2023-03-23T17:16:26.006Z,18.40
2023-03-23T17:18:54.628Z,18.20
2023-03-23T17:21:27.660Z,18.20
2023-03-23T17:23:56.015Z,18.10
2023-03-23T17:26:27.410Z,18.00
2023-03-23T17:28:54.194Z,17.90
2023-03-23T17:31:33.149Z,17.90
2023-03-23T17:36:42.239Z,17.70
2023-03-23T17:39:10.052Z,17.70
2023-03-23T17:41:38.042Z,17.60
2023-03-23T17:44:05.363Z,17.70
2023-03-23T17:46:32.066Z,17.60
2023-03-23T17:48:58.801Z,17.50
2023-03-23T17:51:25.987Z,17.40
2023-03-23T17:53:52.656Z,17.50
2023-03-23T17:56:19.348Z,17.40
2023-03-23T17:58:46.175Z,17.30
2023-03-23T18:01:12.911Z,17.20
2023-03-23T18:03:40.560Z,17.20
2023-03-23T18:06:13.087Z,17.20
2023-03-23T18:08:39.824Z,17.10
2023-03-23T18:11:06.728Z,16.90
2023-03-23T18:13:36.131Z,16.80
2023-03-23T18:16:05.618Z,16.70
2023-03-23T18:18:32.575Z,16.60
2023-03-23T18:21:00.660Z,16.60
2023-03-23T18:23:27.731Z,16.50
2023-03-23T18:25:54.387Z,16.40
2023-03-23T18:28:21.808Z,16.30
2023-03-23T18:30:49.855Z,16.20
2023-03-23T18:33:18.274Z,16.10
2023-03-23T18:35:46.124Z,16.00
2023-03-23T18:38:13.061Z,15.90
2023-03-23T18:40:43.677Z,15.90
2023-03-23T18:43:10.765Z,15.90
2023-03-23T18:45:37.846Z,15.80
2023-03-23T18:48:06.315Z,15.70
2023-03-23T18:50:33.361Z,15.70
2023-03-23T18:52:59.989Z,15.80
2023-03-23T18:55:27.256Z,15.70
2023-03-23T18:57:54.090Z,15.80
2023-03-23T19:00:21.872Z,15.70
2023-03-23T19:02:52.124Z,15.70
2023-03-23T19:05:19.531Z,15.60
2023-03-23T19:07:46.350Z,15.60
2023-03-23T19:10:13.469Z,15.50
2023-03-23T19:12:47.378Z,15.40
2023-03-23T19:15:15.696Z,15.30
2023-03-23T19:17:42.832Z,15.30
2023-03-23T19:20:14.508Z,15.20
2023-03-23T19:22:44.232Z,15.10
2023-03-23T19:25:11.351Z,15.00
2023-03-23T19:27:58.116Z,15.10
2023-03-23T19:30:24.685Z,15.00
2023-03-23T19:32:51.546Z,14.90
2023-03-23T19:35:19.033Z,14.90
2023-03-23T19:37:46.930Z,14.90
2023-03-23T19:40:31.338Z,14.90
2023-03-23T19:43:00.325Z,14.80
2023-03-23T19:45:27.574Z,14.70
2023-03-23T19:47:55.354Z,14.70
2023-03-23T19:50:22.516Z,14.70
2023-03-23T19:52:49.161Z,14.60
2023-03-23T19:55:16.880Z,14.60
2023-03-23T19:57:43.874Z,14.60
2023-03-23T20:00:13.537Z,14.60
2023-03-23T20:02:40.238Z,14.60
2023-03-23T20:05:09.306Z,14.60
2023-03-23T20:07:40.508Z,14.70
2023-03-23T20:10:08.213Z,14.70
2023-03-23T20:12:35.455Z,14.70
2023-03-23T20:15:02.290Z,14.70
2023-03-23T20:17:30.670Z,14.80
2023-03-23T20:19:58.290Z,14.80
2023-03-23T20:22:25.106Z,14.80
2023-03-23T20:24:52.822Z,14.80
2023-03-23T20:27:19.581Z,14.80
2023-03-23T20:29:46.505Z,14.80
2023-03-23T20:32:14.050Z,14.80
2023-03-23T20:34:41.172Z,14.80
2023-03-23T20:37:10.858Z,14.80
2023-03-23T20:39:42.192Z,14.80
2023-03-23T20:42:09.982Z,14.80
2023-03-23T20:44:39.561Z,14.70
2023-03-23T20:47:07.233Z,14.70
2023-03-23T20:49:35.151Z,14.70
2023-03-23T20:52:02.382Z,14.70
2023-03-23T20:54:30.690Z,14.70
2023-03-23T20:56:58.917Z,14.70
2023-03-23T20:59:26.401Z,14.70
2023-03-23T21:01:53.119Z,14.80
2023-03-23T21:04:21.829Z,14.80
2023-03-23T21:06:52.073Z,14.80
2023-03-23T21:09:19.122Z,14.90
2023-03-23T21:11:45.892Z,14.90
2023-03-23T21:14:12.782Z,14.90
2023-03-23T21:16:40.138Z,14.90
2023-03-23T21:19:07.372Z,14.90
2023-03-23T21:21:34.580Z,14.80
2023-03-23T21:24:02.813Z,14.90
2023-03-23T21:26:30.009Z,14.80
2023-03-23T21:28:59.847Z,14.80
2023-03-23T21:31:30.536Z,14.80
2023-03-23T21:33:58.575Z,14.80
2023-03-23T21:36:25.402Z,14.80
2023-03-23T21:38:52.434Z,14.80
2023-03-23T21:41:19.262Z,14.70
2023-03-23T21:43:46.369Z,14.70
2023-03-23T21:46:17.995Z,14.70
2023-03-23T21:48:51.702Z,14.80
2023-03-23T21:51:20.172Z,14.70
2023-03-23T21:53:47.841Z,14.70
2023-03-23T21:56:14.533Z,14.70
2023-03-23T21:58:41.618Z,14.80
2023-03-23T22:01:08.568Z,14.80
2023-03-23T22:03:35.533Z,14.70
2023-03-23T22:06:09.208Z,14.70
2023-03-23T22:08:37.258Z,14.70
2023-03-23T22:11:05.025Z,14.70
2023-03-23T22:13:32.706Z,14.60
2023-03-23T22:15:59.792Z,14.60
2023-03-23T22:18:26.639Z,14.70
2023-03-23T22:20:55.324Z,14.70
2023-03-23T22:23:22.191Z,14.70
2023-03-23T22:25:48.867Z,14.80
2023-03-23T22:28:15.545Z,14.80
2023-03-23T22:30:42.518Z,14.80
2023-03-23T22:33:11.614Z,14.90
2023-03-23T22:35:38.918Z,14.90
2023-03-23T22:38:06.973Z,14.80
2023-03-23T22:40:41.265Z,14.90
2023-03-23T22:43:08.882Z,14.80
2023-03-23T22:45:40.128Z,14.80
2023-03-23T22:48:08.488Z,14.80
2023-03-23T22:50:35.370Z,14.80
2023-03-23T22:53:02.061Z,14.80
2023-03-23T22:55:28.749Z,14.70
2023-03-23T22:57:55.646Z,14.70
2023-03-23T23:00:22.863Z,14.70
2023-03-23T23:02:50.876Z,14.80
2023-03-23T23:05:17.672Z,14.80
2023-03-23T23:07:48.706Z,14.80
2023-03-23T23:10:15.407Z,14.70
2023-03-23T23:12:42.588Z,14.70
2023-03-23T23:15:11.290Z,14.60
2023-03-23T23:17:38.973Z,14.60
2023-03-23T23:20:07.586Z,14.60
2023-03-23T23:22:34.960Z,14.50
2023-03-23T23:25:02.142Z,14.50
2023-03-23T23:27:28.994Z,14.50
2023-03-23T23:30:00.390Z,14.50
2023-03-23T23:32:29.331Z,14.50
2023-03-23T23:34:56.685Z,14.50
2023-03-23T23:37:23.893Z,14.50
2023-03-23T23:39:52.097Z,14.60
2023-03-23T23:42:25.691Z,14.60
2023-03-23T23:44:52.856Z,14.70
2023-03-23T23:47:19.533Z,14.60
2023-03-23T23:49:46.547Z,14.60
2023-03-23T23:52:13.230Z,14.60
2023-03-23T23:54:42.598Z,14.60
2023-03-23T23:57:09.899Z,14.60
2023-03-23T23:59:39.868Z,14.50
